Nearby METAR Reports

 

EGNR - Hawarden (aut), United Kingdom
Distance from station: ESE 33mi, 53km
Updated: 19/09/2017 20:50
NOT Current
Few Clouds
Few Clouds
 Wind from SW
Wind: SW 6 mph , 9 km/h
Temperature: 11°C
Dew Point: 8°C
Humidity: 82%
Barometer: 1020 hPa
Clouds: Few Clouds
Visibility: 6 miles , 10 km
Cloud details: Few Clouds 792 m
2017/09/19 19:50 EGNR 191950Z 22005KT 9999 FEW026 11/08 Q1020
EGOV - Valley Raf, United Kingdom
Distance from station: W 33mi, 53km
Updated: 20/09/2017 01:50
Mostly cloudy
Mostly cloudy
 Wind from S
Wind: S 22 mph , 35 km/h
Temperature: 15°C
Dew Point: 13°C
Humidity: 88%
Barometer: 1017 hPa
Clouds: Mostly cloudy
Visibility: 6 miles , 10 km
Cloud details: Mostly cloudy 213 m
Mostly cloudy 1006 m
2017/09/20 00:50 EGOV 200050Z AUTO 18019KT 9999 BKN007/// BKN033/// 15/13 Q1017
 
EGGP - Liverpool Airpor, United Kingdom
Distance from station: E 37mi, 59km
Updated: 20/09/2017 02:50
Haze, Overcast
Haze, Overcast
 Wind from SSE
Wind: SSE 8 mph , 13 km/h
Temperature: 12°C
Dew Point: 11°C
Humidity: 94%
Barometer: 1018 hPa
Summary: Haze
Clouds: Overcast
Visibility: 1 mile , 1 km
Cloud details: Mostly cloudy 640 m
Overcast 792 m
2017/09/20 01:50 EGGP 200150Z AUTO 16007KT 1000 R27/P1500 HZ BKN021/// OVC026/// 12/11 Q1018
EGNH - Blackpool Airpor, United Kingdom
Distance from station: NE 44mi, 72km
Updated: 19/09/2017 20:50
NOT Current
Few Clouds
Few Clouds
 Wind from S
Wind: S 7 mph , 11 km/h
Temperature: 12°C
Dew Point: 10°C
Humidity: 88%
Barometer: 1019 hPa
Clouds: Few Clouds
Visibility: 6 miles , 10 km
Cloud details: Few Clouds 1219 m
2017/09/19 19:50 EGNH 191950Z 19006KT 9999 FEW040 12/10 Q1019
 
EGNO - Wharton, United Kingdom
Distance from station: NE 47mi, 76km
Updated: 19/09/2017 19:20
NOT Current
Few Clouds
Few Clouds
 Wind from SSW
Wind: SSW 2 mph , 4 km/h
Temperature: 13°C
Dew Point: 10°C
Humidity: 82%
Barometer: 1019 hPa
Clouds: Few Clouds
Visibility: 6 miles , 10 km
Cloud details: Few Clouds 1494 m
2017/09/19 18:20 EGNO 191820Z 20002KT 9999 FEW049 13/10 Q1019
EGOS - Shawbury Raf, United Kingdom
Distance from station: SE 56mi, 89km
Updated: 20/09/2017 01:50
Mostly cloudy
Mostly cloudy
 Wind from SE
Wind: SE 2 mph , 4 km/h
Temperature: 10°C
Dew Point: 9°C
Humidity: 94%
Barometer: 1018 hPa
Clouds: Mostly cloudy
Visibility: 6 miles , 10 km
Cloud details: Mostly cloudy 1006 m
2017/09/20 00:50 EGOS 200050Z AUTO 13002KT 9999 BKN033/// 10/09 Q1018
 
EGCC - Manchester Intl, United Kingdom
Distance from station: E 61mi, 98km
Updated: 20/09/2017 02:50
Partly cloudy
Partly cloudy
 Wind from S
Wind: S 5 mph , 7 km/h
Temperature: 11°C
Dew Point: 10°C
Humidity: 94%
Barometer: 1018 hPa
Clouds: Partly cloudy
Visibility: 6 miles , 10 km
Cloud details: Partly cloudy 1006 m
2017/09/20 01:50 EGCC 200150Z AUTO 18004KT 9999 SCT033 11/10 Q1018 NOSIG
EGNS - Isle Of Man/Rona, United Kingdom
Distance from station: NW 66mi, 107km
Updated: 20/09/2017 02:50
Overcast
Overcast
 Wind from SSW
Wind: SSW 13 mph , 20 km/h
Temperature: 15°C
Dew Point: 14°C
Humidity: 94%
Barometer: 1015 hPa
Clouds: Overcast
Visibility: 6 miles , 10 km
Cloud details: Overcast 213 m
2017/09/20 01:50 EGNS 200150Z 20011KT 9999 OVC007 15/14 Q1015
 
EGNM - Leeds And Bradfo, United Kingdom
Distance from station: ENE 95mi, 153km
Updated: 20/09/2017 02:50
Clear
Clear
 Wind from W
Wind: W 6 mph , 9 km/h
Temperature: 8°C
Wind Chill: 6°C
Dew Point: 8°C
Humidity: 100%
Barometer: 1018 hPa
Summary: Clear
Visibility: greater than 7 miles , 10 km
2017/09/20 01:50 EGNM 200150Z 26005KT 190V280 CAVOK 08/08 Q1018
EGBB - Birmingham Airpo, United Kingdom
Distance from station: ESE 100mi, 161km
Updated: 20/09/2017 02:50
Few Clouds
Few Clouds
 Wind from S
Wind: S 3 mph , 6 km/h
Temperature: 8°C
Dew Point: 8°C
Humidity: 100%
Barometer: 1019 hPa
Clouds: Few Clouds
Visibility: 6 miles , 10 km
Cloud details: Few Clouds 1341 m
2017/09/20 01:50 EGBB 200150Z 17003KT 9999 FEW044 08/08 Q1019